sensor_id;sensor_type;location;lat;lon;timestamp;pressure;altitude;pressure_sealevel;temperature;humidity
78144;BME280;67394;52.522;13.622;2023-02-28T00:02:23;102552.53;;;0.19;78.60
78144;BME280;67394;52.522;13.622;2023-02-28T00:04:49;102553.19;;;0.17;78.08
78144;BME280;67394;52.522;13.622;2023-02-28T00:07:16;102562.63;;;0.19;78.96
78144;BME280;67394;52.522;13.622;2023-02-28T00:09:42;102574.53;;;0.22;79.18
78144;BME280;67394;52.522;13.622;2023-02-28T00:12:08;102568.53;;;0.20;78.67
78144;BME280;67394;52.522;13.622;2023-02-28T00:14:34;102566.53;;;0.16;78.67
78144;BME280;67394;52.522;13.622;2023-02-28T00:17:01;102568.19;;;0.15;79.25
78144;BME280;67394;52.522;13.622;2023-02-28T00:19:27;102569.84;;;0.15;78.65
78144;BME280;67394;52.522;13.622;2023-02-28T00:21:53;102563.91;;;0.14;78.62
78144;BME280;67394;52.522;13.622;2023-02-28T00:24:20;102564.91;;;0.16;79.16
78144;BME280;67394;52.522;13.622;2023-02-28T00:26:46;102566.53;;;0.16;78.85
78144;BME280;67394;52.522;13.622;2023-02-28T00:29:12;102562.03;;;0.12;78.79
78144;BME280;67394;52.522;13.622;2023-02-28T00:31:39;102559.75;;;0.15;78.79
78144;BME280;67394;52.522;13.622;2023-02-28T00:34:05;102562.28;;;0.15;79.11
78144;BME280;67394;52.522;13.622;2023-02-28T00:36:31;102568.06;;;0.14;78.05
78144;BME280;67394;52.522;13.622;2023-02-28T00:38:58;102571.25;;;0.11;78.56
78144;BME280;67394;52.522;13.622;2023-02-28T00:41:24;102568.63;;;0.10;78.32
78144;BME280;67394;52.522;13.622;2023-02-28T00:43:50;102571.25;;;0.11;78.58
78144;BME280;67394;52.522;13.622;2023-02-28T00:46:17;102567.84;;;0.11;78.69
78144;BME280;67394;52.522;13.622;2023-02-28T00:48:43;102569.84;;;0.15;78.41
78144;BME280;67394;52.522;13.622;2023-02-28T00:51:09;102561.28;;;0.13;79.03
78144;BME280;67394;52.522;13.622;2023-02-28T00:53:36;102569.59;;;0.12;79.03
78144;BME280;67394;52.522;13.622;2023-02-28T00:56:02;102565.31;;;0.11;78.81
78144;BME280;67394;52.522;13.622;2023-02-28T00:58:29;102567.19;;;0.13;78.61
78144;BME280;67394;52.522;13.622;2023-02-28T01:00:55;102561.06;;;0.10;79.04
78144;BME280;67394;52.522;13.622;2023-02-28T01:03:22;102565.88;;;0.07;79.32
78144;BME280;67394;52.522;13.622;2023-02-28T01:05:48;102566.97;;;-0.02;78.85
78144;BME280;67394;52.522;13.622;2023-02-28T01:08:15;102564.00;;;-0.08;78.52
78144;BME280;67394;52.522;13.622;2023-02-28T01:10:41;102565.09;;;-0.16;78.94
78144;BME280;67394;52.522;13.622;2023-02-28T01:13:08;102566.28;;;-0.22;79.54
78144;BME280;67394;52.522;13.622;2023-02-28T01:15:34;102558.50;;;-0.25;79.90
78144;BME280;67394;52.522;13.622;2023-02-28T01:18:01;102564.72;;;-0.32;79.56
78144;BME280;67394;52.522;13.622;2023-02-28T01:20:27;102560.09;;;-0.38;79.87
78144;BME280;67394;52.522;13.622;2023-02-28T01:22:54;102555.38;;;-0.45;79.45
78144;BME280;67394;52.522;13.622;2023-02-28T01:25:20;102552.94;;;-0.55;80.97
78144;BME280;67394;52.522;13.622;2023-02-28T01:27:46;102554.00;;;-0.63;79.79
78144;BME280;67394;52.522;13.622;2023-02-28T01:30:13;102552.47;;;-0.61;80.99
78144;BME280;67394;52.522;13.622;2023-02-28T01:32:39;102549.69;;;-0.76;80.73
78144;BME280;67394;52.522;13.622;2023-02-28T01:35:06;102559.03;;;-0.85;81.55
78144;BME280;67394;52.522;13.622;2023-02-28T01:37:32;102549.41;;;-0.90;81.49
78144;BME280;67394;52.522;13.622;2023-02-28T01:39:58;102552.56;;;-0.93;81.55
78144;BME280;67394;52.522;13.622;2023-02-28T01:42:25;102550.84;;;-1.04;81.64
78144;BME280;67394;52.522;13.622;2023-02-28T01:47:30;102548.00;;;-1.08;82.46
78144;BME280;67394;52.522;13.622;2023-02-28T01:49:58;102550.69;;;-1.17;81.80
78144;BME280;67394;52.522;13.622;2023-02-28T01:52:27;102561.50;;;-1.18;82.07
78144;BME280;67394;52.522;13.622;2023-02-28T01:54:55;102550.97;;;-1.24;82.05
78144;BME280;67394;52.522;13.622;2023-02-28T01:57:26;102555.41;;;-1.32;82.65
78144;BME280;67394;52.522;13.622;2023-02-28T02:02:23;102546.50;;;-1.38;81.94
78144;BME280;67394;52.522;13.622;2023-02-28T02:04:54;102546.59;;;-1.37;82.43
78144;BME280;67394;52.522;13.622;2023-02-28T02:07:21;102552.69;;;-1.45;82.29
78144;BME280;67394;52.522;13.622;2023-02-28T02:09:48;102552.19;;;-1.41;82.90
78144;BME280;67394;52.522;13.622;2023-02-28T02:15:16;102558.16;;;-1.61;83.52
78144;BME280;67394;52.522;13.622;2023-02-28T02:17:48;102554.88;;;-1.60;83.53
78144;BME280;67394;52.522;13.622;2023-02-28T02:20:38;102557.00;;;-1.54;83.93
78144;BME280;67394;52.522;13.622;2023-02-28T02:31:51;102547.13;;;-1.73;83.92
78144;BME280;67394;52.522;13.622;2023-02-28T02:34:39;102545.13;;;-1.77;84.04
78144;BME280;67394;52.522;13.622;2023-02-28T02:42:20;102557.56;;;-1.89;84.24
78144;BME280;67394;52.522;13.622;2023-02-28T02:44:51;102557.44;;;-1.90;83.94
78144;BME280;67394;52.522;13.622;2023-02-28T02:47:24;102555.72;;;-1.91;84.44
78144;BME280;67394;52.522;13.622;2023-02-28T02:49:55;102560.38;;;-1.96;84.57
78144;BME280;67394;52.522;13.622;2023-02-28T02:52:28;102556.09;;;-2.07;84.87
78144;BME280;67394;52.522;13.622;2023-02-28T02:54:58;102549.47;;;-2.06;84.89
78144;BME280;67394;52.522;13.622;2023-02-28T02:57:31;102557.75;;;-2.07;84.21
78144;BME280;67394;52.522;13.622;2023-02-28T03:00:02;102553.13;;;-2.13;85.01
78144;BME280;67394;52.522;13.622;2023-02-28T03:02:31;102561.00;;;-2.08;84.58
78144;BME280;67394;52.522;13.622;2023-02-28T03:05:01;102554.47;;;-2.06;84.58
78144;BME280;67394;52.522;13.622;2023-02-28T03:07:29;102558.13;;;-2.13;84.60
78144;BME280;67394;52.522;13.622;2023-02-28T03:09:56;102562.78;;;-2.17;84.72
78144;BME280;67394;52.522;13.622;2023-02-28T03:12:32;102560.75;;;-2.22;84.65
78144;BME280;67394;52.522;13.622;2023-02-28T03:15:32;102559.03;;;-2.23;84.84
78144;BME280;67394;52.522;13.622;2023-02-28T03:18:08;102557.88;;;-2.26;85.44
78144;BME280;67394;52.522;13.622;2023-02-28T03:21:01;102557.50;;;-2.21;84.88
78144;BME280;67394;52.522;13.622;2023-02-28T03:23:33;102563.53;;;-2.29;84.62
78144;BME280;67394;52.522;13.622;2023-02-28T03:26:07;102559.53;;;-2.37;84.65
78144;BME280;67394;52.522;13.622;2023-02-28T03:28:47;102567.81;;;-2.38;85.63
78144;BME280;67394;52.522;13.622;2023-02-28T03:31:27;102568.81;;;-2.36;85.42
78144;BME280;67394;52.522;13.622;2023-02-28T03:36:45;102568.69;;;-2.37;85.47
78144;BME280;67394;52.522;13.622;2023-02-28T03:39:52;102562.16;;;-2.45;85.59
78144;BME280;67394;52.522;13.622;2023-02-28T03:42:25;102561.91;;;-2.48;85.83
78144;BME280;67394;52.522;13.622;2023-02-28T03:45:02;102557.88;;;-2.56;85.69
78144;BME280;67394;52.522;13.622;2023-02-28T03:47:35;102562.16;;;-2.66;86.25
78144;BME280;67394;52.522;13.622;2023-02-28T03:50:38;102570.78;;;-2.72;86.21
78144;BME280;67394;52.522;13.622;2023-02-28T03:53:21;102575.66;;;-2.74;86.60
78144;BME280;67394;52.522;13.622;2023-02-28T03:55:58;102572.81;;;-2.68;85.90
78144;BME280;67394;52.522;13.622;2023-02-28T03:58:49;102568.41;;;-2.71;87.15
78144;BME280;67394;52.522;13.622;2023-02-28T04:01:24;102570.41;;;-2.67;87.23
78144;BME280;67394;52.522;13.622;2023-02-28T04:03:53;102572.28;;;-2.74;86.63
78144;BME280;67394;52.522;13.622;2023-02-28T04:06:22;102575.31;;;-2.68;86.28
78144;BME280;67394;52.522;13.622;2023-02-28T04:08:49;102581.44;;;-2.75;86.35
78144;BME280;67394;52.522;13.622;2023-02-28T04:14:05;102581.06;;;-2.79;86.74
78144;BME280;67394;52.522;13.622;2023-02-28T04:16:33;102577.41;;;-2.83;86.29
78144;BME280;67394;52.522;13.622;2023-02-28T04:19:03;102584.56;;;-2.87;86.50
78144;BME280;67394;52.522;13.622;2023-02-28T04:21:30;102577.38;;;-2.93;85.74
78144;BME280;67394;52.522;13.622;2023-02-28T04:23:57;102574.00;;;-2.93;86.86
78144;BME280;67394;52.522;13.622;2023-02-28T04:26:24;102576.13;;;-2.98;86.39
78144;BME280;67394;52.522;13.622;2023-02-28T04:28:50;102578.97;;;-3.04;87.25
78144;BME280;67394;52.522;13.622;2023-02-28T04:31:16;102577.81;;;-3.07;85.94
78144;BME280;67394;52.522;13.622;2023-02-28T04:33:43;102580.34;;;-3.07;85.18
78144;BME280;67394;52.522;13.622;2023-02-28T04:36:09;102577.81;;;-3.07;85.59
78144;BME280;67394;52.522;13.622;2023-02-28T04:38:37;102580.25;;;-2.99;86.85
78144;BME280;67394;52.522;13.622;2023-02-28T04:41:04;102580.47;;;-3.06;86.65
78144;BME280;67394;52.522;13.622;2023-02-28T04:43:31;102582.84;;;-3.07;87.07
78144;BME280;67394;52.522;13.622;2023-02-28T04:46:01;102579.69;;;-3.15;87.32
78144;BME280;67394;52.522;13.622;2023-02-28T04:48:29;102582.69;;;-3.19;86.83
78144;BME280;67394;52.522;13.622;2023-02-28T04:51:03;102581.69;;;-3.21;85.66
78144;BME280;67394;52.522;13.622;2023-02-28T04:53:30;102581.56;;;-3.22;87.13
78144;BME280;67394;52.522;13.622;2023-02-28T04:55:57;102587.03;;;-3.26;86.77
78144;BME280;67394;52.522;13.622;2023-02-28T04:58:24;102588.16;;;-3.33;86.78
78144;BME280;67394;52.522;13.622;2023-02-28T05:00:52;102587.41;;;-3.32;87.46
78144;BME280;67394;52.522;13.622;2023-02-28T05:03:19;102594.66;;;-3.35;86.86
78144;BME280;67394;52.522;13.622;2023-02-28T05:05:46;102592.66;;;-3.39;86.24
78144;BME280;67394;52.522;13.622;2023-02-28T05:08:13;102598.41;;;-3.40;86.53
78144;BME280;67394;52.522;13.622;2023-02-28T05:10:39;102593.13;;;-3.43;86.92
78144;BME280;67394;52.522;13.622;2023-02-28T05:13:05;102605.66;;;-3.43;86.80
78144;BME280;67394;52.522;13.622;2023-02-28T05:15:32;102599.97;;;-3.51;85.50
78144;BME280;67394;52.522;13.622;2023-02-28T05:18:00;102595.84;;;-3.50;86.24
78144;BME280;67394;52.522;13.622;2023-02-28T05:20:27;102601.00;;;-3.39;86.43
78144;BME280;67394;52.522;13.622;2023-02-28T05:22:53;102599.75;;;-3.44;86.72
78144;BME280;67394;52.522;13.622;2023-02-28T05:25:21;102602.88;;;-3.46;87.15
78144;BME280;67394;52.522;13.622;2023-02-28T05:27:47;102603.38;;;-3.50;86.16
78144;BME280;67394;52.522;13.622;2023-02-28T05:30:14;102606.06;;;-3.57;86.42
78144;BME280;67394;52.522;13.622;2023-02-28T05:32:40;102607.97;;;-3.55;87.34
78144;BME280;67394;52.522;13.622;2023-02-28T05:35:07;102613.44;;;-3.40;86.71
78144;BME280;67394;52.522;13.622;2023-02-28T05:37:33;102611.13;;;-3.47;87.49
78144;BME280;67394;52.522;13.622;2023-02-28T05:40:00;102614.44;;;-3.57;86.33
78144;BME280;67394;52.522;13.622;2023-02-28T05:42:26;102614.81;;;-3.62;87.37
78144;BME280;67394;52.522;13.622;2023-02-28T05:44:52;102610.53;;;-3.63;86.56
78144;BME280;67394;52.522;13.622;2023-02-28T05:47:19;102611.66;;;-3.60;87.45
78144;BME280;67394;52.522;13.622;2023-02-28T05:49:45;102612.56;;;-3.59;87.15
78144;BME280;67394;52.522;13.622;2023-02-28T05:52:11;102610.31;;;-3.56;88.01
78144;BME280;67394;52.522;13.622;2023-02-28T05:54:37;102615.34;;;-3.56;86.73
78144;BME280;67394;52.522;13.622;2023-02-28T05:57:04;102618.13;;;-3.53;87.06
78144;BME280;67394;52.522;13.622;2023-02-28T05:59:40;102618.59;;;-3.57;86.22
78144;BME280;67394;52.522;13.622;2023-02-28T06:02:15;102616.81;;;-3.58;86.30
78144;BME280;67394;52.522;13.622;2023-02-28T06:04:43;102619.19;;;-3.60;86.65
78144;BME280;67394;52.522;13.622;2023-02-28T06:07:09;102621.59;;;-3.61;87.43
78144;BME280;67394;52.522;13.622;2023-02-28T06:09:37;102620.00;;;-3.70;85.87
78144;BME280;67394;52.522;13.622;2023-02-28T06:12:05;102619.53;;;-3.65;87.29
78144;BME280;67394;52.522;13.622;2023-02-28T06:14:33;102620.88;;;-3.69;86.18
78144;BME280;67394;52.522;13.622;2023-02-28T06:17:00;102620.44;;;-3.65;86.90
78144;BME280;67394;52.522;13.622;2023-02-28T06:19:27;102628.81;;;-3.64;87.86
78144;BME280;67394;52.522;13.622;2023-02-28T06:21:54;102624.84;;;-3.62;86.76
78144;BME280;67394;52.522;13.622;2023-02-28T06:24:21;102625.09;;;-3.59;87.83
78144;BME280;67394;52.522;13.622;2023-02-28T06:26:48;102631.34;;;-3.64;88.09
78144;BME280;67394;52.522;13.622;2023-02-28T06:29:16;102630.09;;;-3.59;88.06
78144;BME280;67394;52.522;13.622;2023-02-28T06:31:43;102632.75;;;-3.58;88.25
78144;BME280;67394;52.522;13.622;2023-02-28T06:34:10;102635.81;;;-3.52;87.41
78144;BME280;67394;52.522;13.622;2023-02-28T06:36:38;102642.06;;;-3.47;88.14
78144;BME280;67394;52.522;13.622;2023-02-28T06:39:05;102641.94;;;-3.48;87.29
78144;BME280;67394;52.522;13.622;2023-02-28T06:41:31;102642.63;;;-3.41;87.72
78144;BME280;67394;52.522;13.622;2023-02-28T06:44:18;102651.28;;;-3.37;87.26
78144;BME280;67394;52.522;13.622;2023-02-28T06:46:45;102655.69;;;-3.35;88.15
78144;BME280;67394;52.522;13.622;2023-02-28T06:49:11;102647.69;;;-3.30;88.77
78144;BME280;67394;52.522;13.622;2023-02-28T06:51:41;102660.63;;;-3.26;89.16
78144;BME280;67394;52.522;13.622;2023-02-28T06:54:08;102658.03;;;-3.17;89.08
78144;BME280;67394;52.522;13.622;2023-02-28T06:56:35;102658.84;;;-3.08;89.07
78144;BME280;67394;52.522;13.622;2023-02-28T06:59:01;102657.59;;;-3.03;87.72
78144;BME280;67394;52.522;13.622;2023-02-28T07:01:27;102663.25;;;-2.96;88.44
78144;BME280;67394;52.522;13.622;2023-02-28T07:03:54;102660.03;;;-2.84;87.92
78144;BME280;67394;52.522;13.622;2023-02-28T07:06:22;102667.59;;;-2.74;88.64
78144;BME280;67394;52.522;13.622;2023-02-28T07:08:49;102665.13;;;-2.64;87.86
78144;BME280;67394;52.522;13.622;2023-02-28T07:11:16;102660.91;;;-2.55;87.58
78144;BME280;67394;52.522;13.622;2023-02-28T07:13:42;102660.06;;;-2.45;87.00
78144;BME280;67394;52.522;13.622;2023-02-28T07:16:11;102659.94;;;-2.37;86.68
78144;BME280;67394;52.522;13.622;2023-02-28T07:18:37;102662.94;;;-2.31;86.55
78144;BME280;67394;52.522;13.622;2023-02-28T07:21:06;102662.84;;;-2.22;86.15
78144;BME280;67394;52.522;13.622;2023-02-28T07:23:33;102660.22;;;-2.13;85.91
78144;BME280;67394;52.522;13.622;2023-02-28T07:26:01;102662.00;;;-2.02;85.21
78144;BME280;67394;52.522;13.622;2023-02-28T07:28:27;102661.88;;;-1.94;84.18
78144;BME280;67394;52.522;13.622;2023-02-28T07:30:54;102663.22;;;-1.87;83.95
78144;BME280;67394;52.522;13.622;2023-02-28T07:33:20;102661.84;;;-1.73;84.37
78144;BME280;67394;52.522;13.622;2023-02-28T07:35:46;102671.16;;;-1.62;84.51
78144;BME280;67394;52.522;13.622;2023-02-28T07:38:13;102666.44;;;-1.48;84.14
78144;BME280;67394;52.522;13.622;2023-02-28T07:40:39;102670.34;;;-1.31;84.09
78144;BME280;67394;52.522;13.622;2023-02-28T07:43:05;102674.94;;;-1.15;81.89
78144;BME280;67394;52.522;13.622;2023-02-28T07:45:32;102671.88;;;-1.01;80.73
78144;BME280;67394;52.522;13.622;2023-02-28T07:47:59;102678.38;;;-0.93;81.20
78144;BME280;67394;52.522;13.622;2023-02-28T07:50:26;102666.63;;;-0.82;80.47
78144;BME280;67394;52.522;13.622;2023-02-28T07:52:52;102676.78;;;-0.70;80.00
78144;BME280;67394;52.522;13.622;2023-02-28T07:55:19;102675.09;;;-0.60;79.73
78144;BME280;67394;52.522;13.622;2023-02-28T07:57:45;102679.72;;;-0.54;78.38
78144;BME280;67394;52.522;13.622;2023-02-28T08:00:12;102677.38;;;-0.41;77.78
78144;BME280;67394;52.522;13.622;2023-02-28T08:02:38;102676.97;;;-0.35;76.75
78144;BME280;67394;52.522;13.622;2023-02-28T08:05:06;102672.38;;;-0.29;76.11
78144;BME280;67394;52.522;13.622;2023-02-28T08:07:32;102675.81;;;-0.17;75.53
78144;BME280;67394;52.522;13.622;2023-02-28T08:09:59;102672.91;;;-0.12;74.37
78144;BME280;67394;52.522;13.622;2023-02-28T08:12:26;102673.34;;;-0.06;74.57
78144;BME280;67394;52.522;13.622;2023-02-28T08:14:52;102671.28;;;0.00;72.45
78144;BME280;67394;52.522;13.622;2023-02-28T08:17:19;102679.31;;;0.07;73.45
78144;BME280;67394;52.522;13.622;2023-02-28T08:19:46;102675.81;;;0.16;73.29
78144;BME280;67394;52.522;13.622;2023-02-28T08:22:12;102673.88;;;0.24;71.60
78144;BME280;67394;52.522;13.622;2023-02-28T08:24:40;102674.00;;;0.37;71.15
78144;BME280;67394;52.522;13.622;2023-02-28T08:27:07;102666.69;;;0.40;68.61
78144;BME280;67394;52.522;13.622;2023-02-28T08:29:33;102667.09;;;0.46;69.26
78144;BME280;67394;52.522;13.622;2023-02-28T08:31:59;102669.22;;;0.52;69.11
78144;BME280;67394;52.522;13.622;2023-02-28T08:34:26;102665.34;;;0.57;67.79
78144;BME280;67394;52.522;13.622;2023-02-28T08:36:52;102671.28;;;0.57;67.82
78144;BME280;67394;52.522;13.622;2023-02-28T08:39:19;102673.28;;;0.73;64.91
78144;BME280;67394;52.522;13.622;2023-02-28T08:41:45;102679.53;;;0.78;66.61
78144;BME280;67394;52.522;13.622;2023-02-28T08:44:16;102677.75;;;0.89;64.76
78144;BME280;67394;52.522;13.622;2023-02-28T08:46:42;102679.16;;;0.97;63.37
78144;BME280;67394;52.522;13.622;2023-02-28T08:49:10;102678.09;;;1.05;63.42
78144;BME280;67394;52.522;13.622;2023-02-28T08:51:36;102678.94;;;1.17;62.96
78144;BME280;67394;52.522;13.622;2023-02-28T08:54:02;102667.50;;;1.22;60.07
78144;BME280;67394;52.522;13.622;2023-02-28T08:56:29;102672.09;;;1.28;61.31
78144;BME280;67394;52.522;13.622;2023-02-28T08:58:56;102672.06;;;1.39;57.47
78144;BME280;67394;52.522;13.622;2023-02-28T09:01:25;102665.38;;;1.40;57.08
78144;BME280;67394;52.522;13.622;2023-02-28T09:03:53;102671.63;;;1.45;58.53
78144;BME280;67394;52.522;13.622;2023-02-28T09:06:26;102674.47;;;1.50;57.99
78144;BME280;67394;52.522;13.622;2023-02-28T09:08:57;102678.94;;;1.65;55.83
78144;BME280;67394;52.522;13.622;2023-02-28T09:11:23;102672.28;;;1.79;55.00
78144;BME280;67394;52.522;13.622;2023-02-28T09:13:50;102673.47;;;1.84;53.35
78144;BME280;67394;52.522;13.622;2023-02-28T09:16:17;102667.84;;;1.88;54.86
78144;BME280;67394;52.522;13.622;2023-02-28T09:18:44;102669.34;;;1.98;52.89
78144;BME280;67394;52.522;13.622;2023-02-28T09:21:13;102673.25;;;2.06;55.13
78144;BME280;67394;52.522;13.622;2023-02-28T09:23:41;102672.19;;;2.15;54.46
78144;BME280;67394;52.522;13.622;2023-02-28T09:26:08;102674.56;;;2.26;54.66
78144;BME280;67394;52.522;13.622;2023-02-28T09:28:38;102670.69;;;2.31;55.28
78144;BME280;67394;52.522;13.622;2023-02-28T09:31:04;102665.72;;;2.45;52.08
78144;BME280;67394;52.522;13.622;2023-02-28T09:33:31;102674.13;;;2.57;53.06
78144;BME280;67394;52.522;13.622;2023-02-28T09:36:00;102673.81;;;2.66;51.86
78144;BME280;67394;52.522;13.622;2023-02-28T09:38:28;102671.09;;;2.76;52.53
78144;BME280;67394;52.522;13.622;2023-02-28T09:41:03;102670.53;;;2.80;52.29
78144;BME280;67394;52.522;13.622;2023-02-28T09:43:36;102672.97;;;2.92;51.08
78144;BME280;67394;52.522;13.622;2023-02-28T09:46:27;102672.19;;;2.93;51.39
78144;BME280;67394;52.522;13.622;2023-02-28T09:48:54;102677.91;;;3.04;52.11
78144;BME280;67394;52.522;13.622;2023-02-28T09:54:14;102674.00;;;3.09;52.56
78144;BME280;67394;52.522;13.622;2023-02-28T09:56:41;102669.91;;;3.24;48.64
78144;BME280;67394;52.522;13.622;2023-02-28T10:05:19;102677.69;;;3.27;49.11
78144;BME280;67394;52.522;13.622;2023-02-28T10:07:58;102683.72;;;3.29;51.48
78144;BME280;67394;52.522;13.622;2023-02-28T10:10:40;102676.69;;;3.38;52.28
78144;BME280;67394;52.522;13.622;2023-02-28T10:13:26;102674.44;;;3.43;51.74
78144;BME280;67394;52.522;13.622;2023-02-28T10:16:20;102679.25;;;3.38;51.75
78144;BME280;67394;52.522;13.622;2023-02-28T10:18:52;102669.66;;;3.47;48.67
78144;BME280;67394;52.522;13.622;2023-02-28T10:21:26;102673.16;;;3.49;50.62
78144;BME280;67394;52.522;13.622;2023-02-28T10:24:02;102673.56;;;3.42;52.02
78144;BME280;67394;52.522;13.622;2023-02-28T10:26:30;102667.81;;;3.45;49.99
78144;BME280;67394;52.522;13.622;2023-02-28T10:28:57;102666.22;;;3.60;51.35
78144;BME280;67394;52.522;13.622;2023-02-28T10:31:24;102663.66;;;3.60;49.50
78144;BME280;67394;52.522;13.622;2023-02-28T10:33:51;102663.56;;;3.58;50.73
78144;BME280;67394;52.522;13.622;2023-02-28T10:36:19;102662.84;;;3.61;48.81
78144;BME280;67394;52.522;13.622;2023-02-28T10:38:47;102676.59;;;3.64;50.31
78144;BME280;67394;52.522;13.622;2023-02-28T10:41:28;102672.38;;;3.78;50.86
78144;BME280;67394;52.522;13.622;2023-02-28T10:44:13;102672.47;;;3.80;50.44
78144;BME280;67394;52.522;13.622;2023-02-28T10:46:41;102660.97;;;3.72;48.27
78144;BME280;67394;52.522;13.622;2023-02-28T10:49:15;102660.13;;;3.86;50.18
78144;BME280;67394;52.522;13.622;2023-02-28T10:51:43;102660.22;;;3.87;49.63
78144;BME280;67394;52.522;13.622;2023-02-28T10:54:18;102657.25;;;3.94;49.72
78144;BME280;67394;52.522;13.622;2023-02-28T10:56:45;102652.28;;;3.96;49.02
78144;BME280;67394;52.522;13.622;2023-02-28T11:01:43;102644.75;;;3.97;47.39
78144;BME280;67394;52.522;13.622;2023-02-28T11:04:32;102636.53;;;4.16;47.13
78144;BME280;67394;52.522;13.622;2023-02-28T11:07:21;102629.34;;;4.24;48.30
78144;BME280;67394;52.522;13.622;2023-02-28T11:09:52;102628.94;;;4.31;48.42
78144;BME280;67394;52.522;13.622;2023-02-28T11:12:26;102634.34;;;4.37;48.15
78144;BME280;67394;52.522;13.622;2023-02-28T11:14:57;102628.50;;;4.38;46.29
78144;BME280;67394;52.522;13.622;2023-02-28T11:17:30;102625.50;;;4.45;47.03
78144;BME280;67394;52.522;13.622;2023-02-28T11:20:05;102623.13;;;4.63;47.49
78144;BME280;67394;52.522;13.622;2023-02-28T11:22:39;102624.88;;;4.64;44.45
78144;BME280;67394;52.522;13.622;2023-02-28T11:25:20;102620.13;;;4.70;47.10
78144;BME280;67394;52.522;13.622;2023-02-28T11:27:49;102624.50;;;4.72;46.24
78144;BME280;67394;52.522;13.622;2023-02-28T11:30:37;102623.06;;;4.77;46.33
78144;BME280;67394;52.522;13.622;2023-02-28T11:33:27;102627.97;;;4.89;46.63
78144;BME280;67394;52.522;13.622;2023-02-28T11:36:00;102629.38;;;4.84;45.09
78144;BME280;67394;52.522;13.622;2023-02-28T11:38:26;102629.56;;;4.87;43.71
78144;BME280;67394;52.522;13.622;2023-02-28T11:43:51;102621.78;;;5.00;44.62
78144;BME280;67394;52.522;13.622;2023-02-28T11:55:19;102625.19;;;5.48;44.39
78144;BME280;67394;52.522;13.622;2023-02-28T12:00:45;102631.63;;;5.58;44.22
78144;BME280;67394;52.522;13.622;2023-02-28T12:06:15;102625.00;;;5.77;44.90
78144;BME280;67394;52.522;13.622;2023-02-28T12:08:49;102623.88;;;5.72;42.70
78144;BME280;67394;52.522;13.622;2023-02-28T12:11:55;102615.88;;;5.97;43.18
78144;BME280;67394;52.522;13.622;2023-02-28T12:14:46;102611.13;;;6.05;44.27
78144;BME280;67394;52.522;13.622;2023-02-28T12:20:05;102604.03;;;6.15;41.61
78144;BME280;67394;52.522;13.622;2023-02-28T12:23:00;102598.50;;;6.06;43.70
78144;BME280;67394;52.522;13.622;2023-02-28T12:28:18;102583.34;;;6.43;42.71
78144;BME280;67394;52.522;13.622;2023-02-28T12:31:11;102589.16;;;6.41;42.46
78144;BME280;67394;52.522;13.622;2023-02-28T12:33:51;102581.28;;;6.72;43.27
78144;BME280;67394;52.522;13.622;2023-02-28T12:36:19;102576.47;;;6.78;41.89
78144;BME280;67394;52.522;13.622;2023-02-28T12:38:50;102568.53;;;6.72;41.67
78144;BME280;67394;52.522;13.622;2023-02-28T12:41:22;102567.81;;;6.39;41.45
78144;BME280;67394;52.522;13.622;2023-02-28T12:43:57;102558.00;;;6.46;41.83
78144;BME280;67394;52.522;13.622;2023-02-28T12:46:36;102550.31;;;6.82;41.53
78144;BME280;67394;52.522;13.622;2023-02-28T12:49:09;102546.13;;;6.65;40.09
78144;BME280;67394;52.522;13.622;2023-02-28T12:51:37;102540.59;;;6.92;41.06
78144;BME280;67394;52.522;13.622;2023-02-28T12:54:12;102534.47;;;6.89;41.39
78144;BME280;67394;52.522;13.622;2023-02-28T12:59:34;102533.56;;;6.87;41.26
78144;BME280;67394;52.522;13.622;2023-02-28T13:04:57;102526.31;;;6.77;42.76
78144;BME280;67394;52.522;13.622;2023-02-28T13:07:40;102528.41;;;6.68;40.00
78144;BME280;67394;52.522;13.622;2023-02-28T13:10:10;102523.16;;;6.82;39.58
78144;BME280;67394;52.522;13.622;2023-02-28T13:12:50;102523.38;;;6.87;41.67
78144;BME280;67394;52.522;13.622;2023-02-28T13:17:48;102532.63;;;7.23;41.53
78144;BME280;67394;52.522;13.622;2023-02-28T13:20:21;102532.69;;;7.25;40.63
78144;BME280;67394;52.522;13.622;2023-02-28T13:22:52;102527.19;;;7.35;42.15
78144;BME280;67394;52.522;13.622;2023-02-28T13:27:57;102524.22;;;7.45;40.87
78144;BME280;67394;52.522;13.622;2023-02-28T13:35:46;102534.91;;;7.37;39.93
78144;BME280;67394;52.522;13.622;2023-02-28T13:38:17;102528.25;;;7.40;40.48
78144;BME280;67394;52.522;13.622;2023-02-28T13:40:47;102529.81;;;7.17;41.06
78144;BME280;67394;52.522;13.622;2023-02-28T13:43:16;102521.28;;;7.17;41.27
78144;BME280;67394;52.522;13.622;2023-02-28T13:46:11;102523.47;;;6.90;40.06
78144;BME280;67394;52.522;13.622;2023-02-28T13:48:38;102515.31;;;7.16;42.45
78144;BME280;67394;52.522;13.622;2023-02-28T13:51:35;102517.25;;;7.03;40.08
78144;BME280;67394;52.522;13.622;2023-02-28T13:54:09;102519.78;;;7.22;41.26
78144;BME280;67394;52.522;13.622;2023-02-28T13:59:38;102512.56;;;6.92;42.41
78144;BME280;67394;52.522;13.622;2023-02-28T14:02:40;102501.56;;;6.93;42.73
78144;BME280;67394;52.522;13.622;2023-02-28T14:05:21;102510.69;;;6.88;43.31
78144;BME280;67394;52.522;13.622;2023-02-28T14:07:50;102509.38;;;6.59;40.55
78144;BME280;67394;52.522;13.622;2023-02-28T14:10:31;102507.63;;;6.58;40.34
78144;BME280;67394;52.522;13.622;2023-02-28T14:13:10;102509.16;;;6.55;40.67
78144;BME280;67394;52.522;13.622;2023-02-28T14:15:41;102510.16;;;6.58;41.46
78144;BME280;67394;52.522;13.622;2023-02-28T14:26:57;102518.06;;;5.92;42.75
78144;BME280;67394;52.522;13.622;2023-02-28T14:38:16;102505.94;;;5.70;42.89
78144;BME280;67394;52.522;13.622;2023-02-28T14:40:45;102498.44;;;5.73;43.07
78144;BME280;67394;52.522;13.622;2023-02-28T14:43:24;102499.28;;;5.56;43.42